Time;durP1;ratioP1;P1;durP2;ratioP2;P2;SDS_P1;SDS_P2;PMS_P1;PMS_P2;Temp;Humidity;BMP_temperature;BMP_pressure;BME280_temperature;BME280_humidity;BME280_pressure;Samples;Min_cycle;Max_cycle;Signal;HPM_P1;HPM_P2
2022/08/29 00:02:08;;;;;;;3.33;2.45;;;15.00;99.40;;;;;;604592;237;26858;-63
2022/08/29 00:04:35;;;;;;;4.22;2.65;;;14.90;99.60;;;;;;604564;238;26585;-63
2022/08/29 00:07:03;;;;;;;4.07;2.72;;;14.90;99.70;;;;;;604582;237;26896;-63
2022/08/29 00:09:31;;;;;;;3.87;2.33;;;14.80;99.90;;;;;;604521;237;26602;-65
2022/08/29 00:11:58;;;;;;;3.45;2.30;;;14.80;99.90;;;;;;604547;237;26609;-65
2022/08/29 00:14:26;;;;;;;2.83;2.15;;;14.80;99.90;;;;;;604967;236;26821;-65
2022/08/29 00:16:53;;;;;;;2.95;2.40;;;14.80;99.90;;;;;;606089;236;26585;-65
2022/08/29 00:19:20;;;;;;;3.42;2.37;;;14.80;99.90;;;;;;605634;236;26982;-65
2022/08/29 00:21:47;;;;;;;3.22;2.42;;;14.70;99.90;;;;;;605409;236;26577;-65
2022/08/29 00:24:15;;;;;;;2.78;2.20;;;14.70;99.90;;;;;;594375;238;26893;-65
2022/08/29 00:26:42;;;;;;;3.33;2.62;;;14.70;99.90;;;;;;605156;232;26666;-65
2022/08/29 00:29:09;;;;;;;2.22;2.05;;;14.70;99.90;;;;;;605200;237;26860;-65
2022/08/29 00:31:36;;;;;;;5.07;2.62;;;14.70;99.90;;;;;;605157;238;26661;-65
2022/08/29 00:34:03;;;;;;;2.58;2.37;;;14.60;99.90;;;;;;604923;238;26800;-65
2022/08/29 00:36:31;;;;;;;3.50;2.47;;;14.60;99.90;;;;;;604837;237;26583;-65
2022/08/29 00:38:58;;;;;;;3.60;2.40;;;14.60;99.90;;;;;;604899;237;26824;-65
2022/08/29 00:41:25;;;;;;;3.30;2.08;;;14.60;99.90;;;;;;604829;237;26609;-65
2022/08/29 00:43:52;;;;;;;2.28;2.08;;;14.60;99.90;;;;;;604855;238;26987;-65
2022/08/29 00:46:45;;;;;;;4.37;2.75;;;14.60;99.90;;;;;;604919;237;26579;-65
2022/08/29 00:49:13;;;;;;;3.10;2.30;;;14.50;99.90;;;;;;604592;238;26590;-65
2022/08/29 00:51:41;;;;;;;4.62;2.62;;;14.50;99.90;;;;;;603442;238;26619;-65
2022/08/29 00:54:09;;;;;;;4.18;2.60;;;14.50;99.90;;;;;;604609;237;26550;-65
2022/08/29 00:56:38;;;;;;;4.70;2.40;;;14.50;99.90;;;;;;604567;238;26598;-65
2022/08/29 00:59:08;;;;;;;3.12;2.30;;;14.50;99.90;;;;;;604530;238;26825;-65
2022/08/29 01:01:35;;;;;;;5.07;2.95;;;14.50;99.90;;;;;;604458;238;26574;-65
2022/08/29 01:04:03;;;;;;;2.47;2.10;;;14.50;99.90;;;;;;604604;238;26836;-65
2022/08/29 01:06:30;;;;;;;3.42;2.67;;;14.50;99.90;;;;;;604613;238;26595;-65
2022/08/29 01:08:57;;;;;;;4.55;3.00;;;14.50;99.90;;;;;;604645;238;26886;-65
2022/08/29 01:13:57;;;;;;;3.47;2.40;;;14.40;99.90;;;;;;604611;237;27245;-65
2022/08/29 01:16:25;;;;;;;2.80;2.30;;;14.40;99.90;;;;;;604610;237;26601;-65
2022/08/29 01:18:52;;;;;;;2.55;2.12;;;14.40;99.90;;;;;;604634;237;26571;-65
2022/08/29 01:21:24;;;;;;;4.70;2.15;;;14.50;99.90;;;;;;604439;238;26626;-64
2022/08/29 01:24:24;;;;;;;2.55;2.20;;;14.40;99.90;;;;;;604351;238;26921;-65
2022/08/29 01:26:51;;;;;;;3.47;2.22;;;14.40;99.90;;;;;;605893;236;26816;-64
2022/08/29 01:29:19;;;;;;;3.30;2.30;;;14.40;99.90;;;;;;606226;236;26572;-64
2022/08/29 01:31:46;;;;;;;3.22;2.45;;;14.40;99.90;;;;;;605836;237;26616;-65
2022/08/29 01:34:14;;;;;;;4.97;2.62;;;14.40;99.90;;;;;;605415;236;26592;-65
2022/08/29 01:36:46;;;;;;;3.97;2.55;;;14.40;99.90;;;;;;605220;237;26814;-65
2022/08/29 01:39:11;;;;;;;3.62;2.40;;;14.40;99.90;;;;;;604895;238;26633;-65
2022/08/29 01:41:40;;;;;;;5.03;2.70;;;14.40;99.90;;;;;;605005;232;26646;-65
2022/08/29 01:44:08;;;;;;;4.10;2.70;;;14.40;99.90;;;;;;605009;238;26632;-65
2022/08/29 01:46:36;;;;;;;2.42;2.22;;;14.30;99.90;;;;;;604848;237;26596;-65
2022/08/29 01:49:03;;;;;;;3.35;2.30;;;14.30;99.90;;;;;;604907;237;26820;-65
2022/08/29 01:51:31;;;;;;;4.03;2.40;;;14.20;99.90;;;;;;604748;237;26603;-65
2022/08/29 01:53:57;;;;;;;5.00;3.00;;;14.20;99.90;;;;;;604898;237;26606;-65
2022/08/29 01:56:26;;;;;;;4.50;2.60;;;14.20;99.90;;;;;;604920;238;26795;-65
2022/08/29 01:58:53;;;;;;;2.67;2.47;;;14.20;99.90;;;;;;604812;237;26595;-65
2022/08/29 02:01:20;;;;;;;3.22;2.58;;;14.20;99.90;;;;;;604804;237;26939;-65
2022/08/29 02:03:48;;;;;;;2.87;2.65;;;14.20;99.90;;;;;;604449;238;26578;-65
2022/08/29 02:06:15;;;;;;;4.10;2.42;;;14.10;99.90;;;;;;604623;232;26828;-65
2022/08/29 02:08:42;;;;;;;4.37;2.75;;;14.10;99.90;;;;;;604570;237;26590;-65
2022/08/29 02:11:10;;;;;;;4.50;2.90;;;14.10;99.90;;;;;;604559;237;26885;-65
2022/08/29 02:13:36;;;;;;;4.10;2.70;;;14.10;99.90;;;;;;604611;237;26563;-65
2022/08/29 02:16:04;;;;;;;4.25;2.92;;;14.10;99.90;;;;;;604563;238;27116;-65
2022/08/29 02:18:32;;;;;;;4.35;2.90;;;14.00;99.90;;;;;;604606;237;26586;-65
2022/08/29 02:20:59;;;;;;;3.10;2.50;;;14.00;99.90;;;;;;604546;237;26702;-65
2022/08/29 02:23:27;;;;;;;3.53;2.58;;;14.00;99.90;;;;;;604920;237;26575;-65
2022/08/29 02:25:56;;;;;;;2.78;2.50;;;14.10;99.90;;;;;;604985;237;26576;-65
2022/08/29 02:28:22;;;;;;;3.80;2.35;;;14.00;99.90;;;;;;604856;238;26567;-65
2022/08/29 02:30:50;;;;;;;4.30;2.40;;;14.10;99.90;;;;;;604949;237;26582;-64
2022/08/29 02:33:17;;;;;;;5.55;2.90;;;14.00;99.90;;;;;;604857;232;26816;-65
2022/08/29 02:35:44;;;;;;;3.70;2.53;;;14.10;99.90;;;;;;604807;237;26558;-65
2022/08/29 02:38:11;;;;;;;3.70;2.60;;;14.10;99.90;;;;;;605297;235;26585;-65
2022/08/29 02:40:38;;;;;;;3.30;2.50;;;14.10;99.90;;;;;;605846;236;26860;-65
2022/08/29 02:43:06;;;;;;;3.08;2.72;;;14.00;99.90;;;;;;605466;237;26610;-65
2022/08/29 02:45:36;;;;;;;3.33;2.60;;;14.00;99.90;;;;;;605406;236;26543;-65
2022/08/29 02:48:03;;;;;;;4.72;2.83;;;14.00;99.90;;;;;;605172;236;26604;-65
2022/08/29 02:50:30;;;;;;;5.05;2.72;;;14.00;99.90;;;;;;605158;237;26651;-65
2022/08/29 02:52:57;;;;;;;3.28;2.12;;;13.90;99.90;;;;;;605183;238;26652;-65
2022/08/29 02:55:25;;;;;;;3.65;2.87;;;13.90;99.90;;;;;;605270;237;26623;-65
2022/08/29 02:57:52;;;;;;;3.20;2.45;;;13.90;99.90;;;;;;604941;238;26807;-65
2022/08/29 03:00:20;;;;;;;2.75;2.50;;;13.90;99.90;;;;;;604904;237;26629;-65
2022/08/29 03:02:47;;;;;;;3.50;2.70;;;13.80;99.90;;;;;;604759;238;26579;-65
2022/08/29 03:05:15;;;;;;;2.67;2.37;;;13.80;99.90;;;;;;604876;238;26647;-65
2022/08/29 03:07:43;;;;;;;4.22;2.62;;;13.80;99.90;;;;;;604844;238;26591;-65
2022/08/29 03:10:11;;;;;;;3.20;2.40;;;13.70;99.90;;;;;;604727;238;26618;-65
2022/08/29 03:12:38;;;;;;;3.50;2.37;;;13.70;99.90;;;;;;604881;237;26796;-65
2022/08/29 03:15:06;;;;;;;4.55;2.80;;;13.70;99.90;;;;;;604591;237;26586;-65
2022/08/29 03:17:33;;;;;;;3.72;2.55;;;13.70;99.90;;;;;;604548;238;26594;-65
2022/08/29 03:20:01;;;;;;;2.83;2.45;;;13.70;99.90;;;;;;604593;237;26844;-65
2022/08/29 03:22:28;;;;;;;3.85;2.80;;;13.70;99.90;;;;;;604641;237;26603;-65
2022/08/29 03:24:55;;;;;;;3.90;2.80;;;13.70;99.90;;;;;;604600;238;26849;-65
2022/08/29 03:27:23;;;;;;;3.40;2.47;;;13.70;99.90;;;;;;604669;238;26596;-67
2022/08/29 03:29:51;;;;;;;2.70;2.47;;;13.60;99.90;;;;;;604558;237;26593;-67
2022/08/29 03:32:19;;;;;;;2.78;2.58;;;13.60;99.90;;;;;;604961;237;26593;-67
2022/08/29 03:34:46;;;;;;;2.65;2.35;;;13.60;99.90;;;;;;605013;237;26576;-67
2022/08/29 03:37:13;;;;;;;3.37;2.10;;;13.60;99.90;;;;;;604982;237;26550;-67
2022/08/29 03:39:41;;;;;;;2.60;2.30;;;13.60;99.90;;;;;;604938;238;26558;-67
2022/08/29 03:42:08;;;;;;;3.78;2.60;;;13.60;99.90;;;;;;604971;238;26582;-67
2022/08/29 03:44:35;;;;;;;6.43;3.15;;;13.60;99.90;;;;;;604960;238;26847;-67
2022/08/29 03:47:03;;;;;;;4.15;2.67;;;13.50;99.90;;;;;;604993;237;26539;-67
2022/08/29 03:49:30;;;;;;;4.40;2.45;;;13.50;99.90;;;;;;605583;235;26554;-67
2022/08/29 03:51:57;;;;;;;3.47;2.65;;;13.50;99.90;;;;;;606316;236;26884;-67
2022/08/29 03:54:24;;;;;;;3.42;2.60;;;13.50;99.90;;;;;;605986;237;26558;-67
2022/08/29 03:56:51;;;;;;;3.47;2.50;;;13.50;99.90;;;;;;605583;237;27071;-67
2022/08/29 03:59:19;;;;;;;3.72;2.67;;;13.50;99.90;;;;;;605287;237;26598;-67
2022/08/29 04:01:47;;;;;;;3.72;2.72;;;13.50;99.90;;;;;;607556;235;26874;-67
2022/08/29 04:05:05;;;;;;;3.95;2.85;;;13.50;99.90;;;;;;607677;234;26637;-67
2022/08/29 04:06:42;;;;;;;4.93;3.03;;;13.40;99.90;;;;;;603291;235;26843;-67
2022/08/29 04:09:08;;;;;;;5.20;2.85;;;13.40;99.90;;;;;;604718;238;26607;-67
2022/08/29 04:11:36;;;;;;;3.25;2.65;;;13.40;99.90;;;;;;604788;237;26946;-67
2022/08/29 04:14:04;;;;;;;2.80;2.55;;;13.40;99.90;;;;;;604826;238;26602;-67
2022/08/29 04:16:31;;;;;;;4.53;2.85;;;13.40;99.90;;;;;;604860;238;26555;-67
2022/08/29 04:18:59;;;;;;;3.90;2.92;;;13.40;99.90;;;;;;604862;237;26571;-67
2022/08/29 04:21:26;;;;;;;3.12;2.62;;;13.40;99.90;;;;;;604791;237;26855;-67
2022/08/29 04:23:53;;;;;;;2.83;2.45;;;13.40;99.90;;;;;;604862;237;26590;-67
2022/08/29 04:26:21;;;;;;;4.53;2.90;;;13.50;99.90;;;;;;604677;238;26830;-67
2022/08/29 04:28:48;;;;;;;5.28;2.87;;;13.50;99.90;;;;;;604608;238;26571;-67
2022/08/29 04:31:18;;;;;;;4.07;2.78;;;13.60;99.90;;;;;;604547;237;26848;-67
2022/08/29 04:33:43;;;;;;;3.00;2.60;;;13.80;99.90;;;;;;604370;238;26597;-67
2022/08/29 04:36:11;;;;;;;2.67;2.45;;;14.00;99.90;;;;;;604625;237;26555;-67
2022/08/29 04:38:39;;;;;;;4.25;2.67;;;14.10;99.90;;;;;;604605;237;26550;-67
2022/08/29 04:41:07;;;;;;;4.15;2.62;;;14.20;99.90;;;;;;604590;237;26614;-67
2022/08/29 04:43:34;;;;;;;4.50;2.87;;;14.10;99.90;;;;;;604537;237;26591;-67
2022/08/29 04:46:01;;;;;;;4.62;2.65;;;14.20;99.90;;;;;;604640;237;26566;-66
2022/08/29 04:48:28;;;;;;;4.65;2.95;;;14.20;99.90;;;;;;604605;238;26834;-66
2022/08/29 04:50:55;;;;;;;3.05;2.60;;;14.20;99.90;;;;;;604537;238;26601;-66
2022/08/29 04:53:23;;;;;;;3.60;3.10;;;14.30;99.90;;;;;;604600;237;27263;-66
2022/08/29 04:56:09;;;;;;;5.60;3.15;;;14.40;99.90;;;;;;604623;237;26591;-66
2022/08/29 04:58:37;;;;;;;2.90;2.53;;;14.40;99.90;;;;;;604568;237;27262;-66
2022/08/29 05:01:05;;;;;;;3.40;2.62;;;14.30;99.90;;;;;;605487;232;26824;-66
2022/08/29 05:03:32;;;;;;;2.92;2.50;;;14.40;99.90;;;;;;606235;237;26549;-66
2022/08/29 05:06:00;;;;;;;4.03;3.15;;;14.20;99.90;;;;;;605460;237;26877;-66
2022/08/29 05:08:26;;;;;;;5.45;3.05;;;14.20;99.90;;;;;;605354;237;26591;-66
2022/08/29 05:10:53;;;;;;;3.87;2.70;;;14.20;99.90;;;;;;605234;237;27281;-66
2022/08/29 05:13:21;;;;;;;4.60;3.30;;;14.20;99.90;;;;;;605189;237;26642;-66
2022/08/29 05:15:48;;;;;;;3.75;2.85;;;14.30;99.90;;;;;;605215;237;26854;-66
2022/08/29 05:18:16;;;;;;;3.62;3.05;;;14.40;99.90;;;;;;605238;237;26668;-66
2022/08/29 05:20:42;;;;;;;3.85;3.22;;;14.40;99.90;;;;;;604950;237;26853;-66
2022/08/29 05:23:09;;;;;;;5.53;3.00;;;14.40;99.90;;;;;;604915;237;26590;-66
2022/08/29 05:25:37;;;;;;;5.75;3.37;;;14.40;99.90;;;;;;604919;237;26579;-66
2022/08/29 05:28:05;;;;;;;5.80;2.95;;;14.60;99.90;;;;;;604863;238;26589;-66
2022/08/29 05:30:33;;;;;;;3.45;2.90;;;14.60;99.90;;;;;;604772;238;26615;-66
2022/08/29 05:33:00;;;;;;;3.95;2.95;;;14.60;99.90;;;;;;604855;238;26582;-66
2022/08/29 05:35:27;;;;;;;4.22;3.03;;;14.80;99.90;;;;;;604890;238;26543;-67
2022/08/29 05:37:55;;;;;;;4.37;2.90;;;14.70;99.90;;;;;;604621;237;26929;-67
2022/08/29 05:40:22;;;;;;;4.05;3.17;;;14.80;99.90;;;;;;604524;237;26593;-66
2022/08/29 05:42:49;;;;;;;4.87;2.97;;;14.90;99.90;;;;;;604576;237;26865;-67
2022/08/29 05:45:16;;;;;;;3.00;2.72;;;15.00;99.90;;;;;;604605;237;26586;-67
2022/08/29 05:47:44;;;;;;;3.33;2.83;;;15.10;99.90;;;;;;604541;238;26804;-66
2022/08/29 05:50:12;;;;;;;5.55;3.50;;;15.20;99.90;;;;;;604548;238;26619;-66
2022/08/29 05:52:38;;;;;;;4.28;3.22;;;15.30;99.90;;;;;;604524;238;26591;-67
2022/08/29 05:55:05;;;;;;;6.10;3.70;;;15.50;99.90;;;;;;604575;238;26590;-67
2022/08/29 05:57:33;;;;;;;4.65;3.03;;;15.50;99.90;;;;;;604569;237;26592;-66
2022/08/29 06:00:01;;;;;;;4.43;3.30;;;15.60;99.90;;;;;;604536;237;26583;-66
2022/08/29 06:02:28;;;;;;;3.65;3.08;;;15.60;99.90;;;;;;604593;238;26832;-67
2022/08/29 06:04:56;;;;;;;3.67;3.20;;;15.70;99.90;;;;;;604621;238;26599;-66
2022/08/29 06:07:23;;;;;;;4.28;2.80;;;15.90;99.90;;;;;;604639;237;26850;-67
2022/08/29 06:09:51;;;;;;;3.92;3.22;;;15.90;99.90;;;;;;604546;237;26599;-67
2022/08/29 06:12:18;;;;;;;4.12;3.33;;;15.90;99.90;;;;;;604916;235;26609;-67
2022/08/29 06:14:45;;;;;;;3.35;3.03;;;16.10;99.90;;;;;;606007;236;26814;-67
2022/08/29 06:17:12;;;;;;;4.25;3.30;;;16.20;99.90;;;;;;605685;237;26639;-67
2022/08/29 06:19:39;;;;;;;3.83;3.25;;;16.20;99.90;;;;;;605457;237;26819;-67
2022/08/29 06:22:06;;;;;;;5.62;3.45;;;16.20;99.90;;;;;;605282;237;26608;-67
2022/08/29 06:24:34;;;;;;;4.60;3.75;;;16.20;99.90;;;;;;605149;237;26842;-67
2022/08/29 06:27:01;;;;;;;4.03;3.00;;;16.30;99.90;;;;;;605197;237;26639;-67
2022/08/29 06:29:29;;;;;;;5.70;3.40;;;16.30;99.90;;;;;;605173;237;27395;-67
2022/08/29 06:31:56;;;;;;;3.78;3.37;;;16.30;99.90;;;;;;604870;232;26816;-67
2022/08/29 06:34:23;;;;;;;4.40;3.35;;;16.20;99.90;;;;;;604917;237;26572;-67
2022/08/29 06:36:50;;;;;;;4.05;3.00;;;16.30;99.90;;;;;;604913;237;26582;-66
2022/08/29 06:39:18;;;;;;;3.62;3.03;;;16.20;99.90;;;;;;604868;237;26571;-67
2022/08/29 06:41:46;;;;;;;5.00;3.35;;;16.30;99.90;;;;;;604834;237;26610;-67
2022/08/29 06:44:14;;;;;;;3.80;2.85;;;16.30;99.90;;;;;;604854;237;26602;-67
2022/08/29 06:46:42;;;;;;;6.65;3.42;;;16.40;99.90;;;;;;604891;238;26607;-67
2022/08/29 06:49:10;;;;;;;5.18;3.33;;;16.50;99.90;;;;;;604541;238;26944;-65
2022/08/29 06:51:37;;;;;;;6.12;3.10;;;16.50;99.90;;;;;;604483;238;26891;-67
2022/08/29 06:54:05;;;;;;;4.32;3.10;;;16.70;99.90;;;;;;604546;238;26559;-67
2022/08/29 06:56:32;;;;;;;3.33;3.03;;;16.80;99.90;;;;;;604572;233;26591;-66
2022/08/29 06:59:00;;;;;;;3.17;2.80;;;17.10;99.90;;;;;;604605;237;26570;-65
2022/08/29 07:01:28;;;;;;;3.83;3.03;;;17.10;99.90;;;;;;604607;238;26591;-66
2022/08/29 07:03:56;;;;;;;5.03;3.75;;;17.00;99.90;;;;;;604657;237;26567;-65
2022/08/29 07:06:24;;;;;;;5.20;3.22;;;17.20;99.90;;;;;;604586;237;26600;-66
2022/08/29 07:08:52;;;;;;;3.10;2.80;;;17.50;99.90;;;;;;604504;238;26597;-65
2022/08/29 07:11:19;;;;;;;4.85;3.05;;;17.40;99.90;;;;;;604541;237;26842;-66
2022/08/29 07:13:46;;;;;;;3.50;3.08;;;17.40;99.90;;;;;;604550;237;26578;-65
2022/08/29 07:16:15;;;;;;;3.95;3.53;;;17.30;99.90;;;;;;604631;237;27221;-66
2022/08/29 07:18:42;;;;;;;3.10;2.80;;;17.30;99.90;;;;;;604574;237;26594;-66
2022/08/29 07:21:10;;;;;;;3.45;2.97;;;17.30;99.90;;;;;;604564;237;26598;-66
2022/08/29 07:23:38;;;;;;;4.18;3.00;;;17.40;99.90;;;;;;604603;235;26594;-66
2022/08/29 07:26:09;;;;;;;5.85;3.35;;;17.40;99.90;;;;;;606182;236;26590;-66
2022/08/29 07:28:36;;;;;;;4.57;3.33;;;17.40;99.90;;;;;;605439;237;26638;-65
2022/08/29 07:31:03;;;;;;;4.87;3.33;;;17.40;99.90;;;;;;605405;236;26852;-65
2022/08/29 07:33:31;;;;;;;4.25;3.00;;;17.60;99.90;;;;;;605336;236;26625;-65
2022/08/29 07:35:58;;;;;;;3.95;3.05;;;17.70;99.90;;;;;;605176;237;26854;-66
2022/08/29 07:38:27;;;;;;;3.65;2.90;;;17.70;99.90;;;;;;605195;238;26635;-66
2022/08/29 07:41:00;;;;;;;5.97;3.10;;;17.80;99.90;;;;;;605399;238;26855;-65
2022/08/29 07:43:27;;;;;;;3.40;3.10;;;17.70;99.90;;;;;;605308;237;26794;-65
2022/08/29 07:45:55;;;;;;;4.05;3.22;;;17.60;99.90;;;;;;604997;232;26642;-65
2022/08/29 07:48:22;;;;;;;3.58;3.17;;;17.50;99.90;;;;;;604910;237;26817;-65
2022/08/29 07:50:49;;;;;;;3.10;2.80;;;17.70;99.90;;;;;;604844;237;26591;-66
2022/08/29 07:53:16;;;;;;;3.60;2.62;;;17.80;99.90;;;;;;604802;238;26839;-66
2022/08/29 07:55:44;;;;;;;2.70;2.42;;;17.80;99.90;;;;;;604881;237;26582;-67
2022/08/29 07:58:10;;;;;;;3.47;2.65;;;17.90;99.90;;;;;;604682;238;26819;-67
2022/08/29 08:00:38;;;;;;;4.62;3.05;;;17.90;99.90;;;;;;604696;237;26630;-66
2022/08/29 08:03:05;;;;;;;4.72;3.53;;;17.90;99.90;;;;;;604619;237;26583;-67
2022/08/29 08:05:33;;;;;;;4.22;3.40;;;18.20;99.90;;;;;;604474;238;26569;-66
2022/08/29 08:08:01;;;;;;;5.05;3.37;;;18.20;99.90;;;;;;604603;237;26571;-67
2022/08/29 08:10:29;;;;;;;3.78;2.75;;;18.20;99.90;;;;;;604531;237;26605;-67
2022/08/29 08:12:57;;;;;;;4.35;3.42;;;18.20;99.90;;;;;;604553;237;26603;-66
2022/08/29 08:15:25;;;;;;;5.28;3.42;;;18.40;99.90;;;;;;604506;237;26611;-66
2022/08/29 08:17:52;;;;;;;4.18;2.87;;;18.40;99.90;;;;;;604558;237;26591;-66
2022/08/29 08:20:20;;;;;;;2.80;2.60;;;18.50;99.90;;;;;;604577;238;26591;-66
2022/08/29 08:22:47;;;;;;;3.35;2.92;;;18.70;99.90;;;;;;604622;237;26818;-66
2022/08/29 08:25:14;;;;;;;2.97;2.60;;;18.80;99.90;;;;;;604605;237;26582;-66
2022/08/29 08:27:42;;;;;;;4.10;3.00;;;18.60;99.90;;;;;;604654;237;26816;-66
2022/08/29 08:30:11;;;;;;;3.00;2.75;;;18.80;99.90;;;;;;604576;237;26875;-66
2022/08/29 08:32:39;;;;;;;3.97;2.75;;;18.90;99.90;;;;;;604629;238;26635;-66
2022/08/29 08:35:06;;;;;;;3.28;2.95;;;18.90;99.90;;;;;;604530;237;26578;-66
2022/08/29 08:37:34;;;;;;;3.70;3.05;;;18.80;99.90;;;;;;606234;236;26585;-66
2022/08/29 08:40:02;;;;;;;5.22;3.83;;;18.70;99.90;;;;;;605611;237;26626;-66
2022/08/29 08:42:37;;;;;;;4.22;3.03;;;18.70;99.90;;;;;;605466;236;26593;-67
2022/08/29 08:45:03;;;;;;;3.87;2.90;;;18.70;99.90;;;;;;605035;237;26608;-67
2022/08/29 08:47:30;;;;;;;3.40;3.10;;;18.90;99.90;;;;;;605098;238;27383;-67
2022/08/29 08:50:00;;;;;;;3.80;3.33;;;19.00;99.90;;;;;;605033;234;26606;-67
2022/08/29 08:52:49;;;;;;;4.20;3.20;;;19.10;99.90;;;;;;605387;235;26868;-67
2022/08/29 08:55:22;;;;;;;4.93;4.00;;;19.20;99.90;;;;;;602850;235;26969;-64
2022/08/29 08:58:05;;;;;;;6.28;3.53;;;19.10;99.90;;;;;;608903;235;26639;-64
2022/08/29 09:00:32;;;;;;;3.97;2.97;;;19.20;99.90;;;;;;608077;234;26646;-64
2022/08/29 09:03:03;;;;;;;4.22;3.00;;;19.10;99.90;;;;;;609106;235;26619;-64
2022/08/29 09:05:51;;;;;;;3.95;2.92;;;19.10;99.90;;;;;;608101;235;26599;-64
2022/08/29 09:08:21;;;;;;;3.53;2.90;;;19.30;99.90;;;;;;604535;235;26832;-64
2022/08/29 09:10:54;;;;;;;4.20;3.22;;;19.70;99.90;;;;;;607988;235;26664;-64
2022/08/29 09:13:39;;;;;;;3.15;2.90;;;19.90;99.90;;;;;;608921;234;26962;-63
2022/08/29 09:16:10;;;;;;;2.80;2.60;;;20.30;99.80;;;;;;606741;235;26690;-64
2022/08/29 09:18:38;;;;;;;2.47;2.28;;;20.20;99.70;;;;;;608230;235;26645;-63
2022/08/29 09:21:06;;;;;;;4.12;2.55;;;20.00;99.90;;;;;;608353;235;26633;-63
2022/08/29 09:23:49;;;;;;;3.28;2.97;;;20.30;99.90;;;;;;607460;234;26655;-63
2022/08/29 09:26:16;;;;;;;5.32;3.40;;;20.20;99.90;;;;;;607560;235;26647;-64
2022/08/29 09:28:44;;;;;;;3.50;2.75;;;20.80;99.00;;;;;;608363;234;26854;-63
2022/08/29 09:31:17;;;;;;;3.00;2.70;;;20.80;98.80;;;;;;607642;235;26649;-63
2022/08/29 09:33:44;;;;;;;4.72;2.90;;;20.70;98.80;;;;;;609437;234;26852;-64
2022/08/29 09:36:12;;;;;;;5.07;3.10;;;20.40;99.00;;;;;;608544;235;26663;-64
2022/08/29 09:38:40;;;;;;;3.55;3.12;;;20.50;99.20;;;;;;607764;235;26630;-64
2022/08/29 09:41:09;;;;;;;2.85;2.50;;;20.60;99.00;;;;;;607776;235;26677;-63
2022/08/29 09:43:56;;;;;;;6.65;3.37;;;20.60;99.00;;;;;;608689;235;26627;-64
2022/08/29 09:46:21;;;;;;;4.43;2.55;;;20.70;99.00;;;;;;608635;235;26650;-64
2022/08/29 09:48:51;;;;;;;3.22;2.78;;;20.80;99.00;;;;;;610212;234;26649;-64
2022/08/29 09:51:28;;;;;;;3.17;2.87;;;20.60;99.00;;;;;;609184;234;27135;-64
2022/08/29 09:54:01;;;;;;;2.80;2.60;;;20.60;99.10;;;;;;609159;234;26844;-64
2022/08/29 09:56:28;;;;;;;2.83;2.60;;;20.70;98.70;;;;;;609041;234;26635;-64
2022/08/29 09:58:56;;;;;;;4.65;3.25;;;20.50;99.00;;;;;;609404;235;27290;-66
2022/08/29 10:01:23;;;;;;;3.87;3.10;;;20.50;99.00;;;;;;612944;235;26702;-67
2022/08/29 10:04:00;;;;;;;3.95;3.22;;;20.60;98.90;;;;;;610425;235;26856;-67
2022/08/29 10:06:27;;;;;;;4.30;2.87;;;20.50;98.90;;;;;;610098;235;26641;-67
2022/08/29 10:08:55;;;;;;;3.08;2.78;;;20.70;98.70;;;;;;610786;235;26824;-68
2022/08/29 10:11:37;;;;;;;3.72;2.65;;;20.70;98.70;;;;;;604729;238;26820;-69
2022/08/29 10:14:06;;;;;;;3.62;3.05;;;21.00;98.50;;;;;;607717;236;26668;-66
2022/08/29 10:16:36;;;;;;;70.43;17.52;;;20.90;98.40;;;;;;609983;236;26854;-68
2022/08/29 10:19:06;;;;;;;85.85;21.55;;;21.00;98.80;;;;;;609798;236;26583;-69
2022/08/29 10:21:39;;;;;;;126.72;31.02;;;20.90;98.70;;;;;;609609;234;26673;-69
2022/08/29 10:24:09;;;;;;;139.60;33.10;;;20.80;98.60;;;;;;609300;236;26640;-67
2022/08/29 10:26:41;;;;;;;130.20;29.70;;;21.30;98.90;;;;;;605635;235;26574;-66
2022/08/29 10:29:16;;;;;;;60.28;18.10;;;21.50;97.90;;;;;;606305;232;26976;-68
2022/08/29 10:31:46;;;;;;;20.70;8.23;;;20.90;98.30;;;;;;609731;235;26622;-68
2022/08/29 10:34:16;;;;;;;14.70;6.50;;;20.90;98.30;;;;;;609451;232;26610;-67
2022/08/29 10:36:43;;;;;;;11.50;5.37;;;20.70;98.80;;;;;;611814;235;26979;-67
2022/08/29 10:39:13;;;;;;;19.42;6.75;;;20.60;99.00;;;;;;612004;235;26643;-67
2022/08/29 10:41:40;;;;;;;6.20;4.18;;;20.50;99.00;;;;;;612213;235;26933;-67
2022/08/29 10:44:08;;;;;;;13.55;5.37;;;20.30;99.20;;;;;;611062;235;26625;-67
2022/08/29 10:46:38;;;;;;;10.35;5.45;;;20.30;99.60;;;;;;611784;235;26607;-67
2022/08/29 10:49:20;;;;;;;10.57;4.37;;;20.70;99.50;;;;;;611525;235;26658;-67
2022/08/29 10:51:58;;;;;;;14.63;5.00;;;20.80;99.00;;;;;;612222;235;26680;-67
2022/08/29 10:54:42;;;;;;;10.90;5.03;;;21.10;98.70;;;;;;607134;235;26867;-67
2022/08/29 10:57:10;;;;;;;7.60;3.70;;;21.00;98.90;;;;;;600755;235;26932;-67
2022/08/29 10:59:45;;;;;;;4.00;3.33;;;21.30;98.30;;;;;;609269;232;27354;-67
2022/08/29 11:02:31;;;;;;;5.07;3.90;;;21.10;98.50;;;;;;607437;234;26611;-68
2022/08/29 11:04:58;;;;;;;4.60;3.62;;;21.20;98.50;;;;;;609572;234;26624;-67
2022/08/29 11:07:30;;;;;;;7.10;4.20;;;21.50;98.20;;;;;;605965;235;26599;-67
2022/08/29 11:10:00;;;;;;;6.70;4.43;;;21.80;97.30;;;;;;611019;235;26860;-66
2022/08/29 11:12:30;;;;;;;6.40;3.50;;;21.90;97.30;;;;;;612755;235;26863;-66
2022/08/29 11:15:08;;;;;;;5.20;3.90;;;21.50;97.50;;;;;;612241;235;26630;-67
2022/08/29 11:17:35;;;;;;;7.32;4.47;;;21.30;97.80;;;;;;612917;235;26587;-67
2022/08/29 11:20:09;;;;;;;3.45;3.15;;;21.40;98.00;;;;;;612664;234;26583;-66
2022/08/29 11:22:48;;;;;;;3.40;3.10;;;21.30;97.90;;;;;;604916;235;26617;-66
2022/08/29 11:25:15;;;;;;;8.80;4.18;;;21.40;97.90;;;;;;602265;238;26574;-67
2022/08/29 11:27:52;;;;;;;4.45;3.80;;;21.60;97.70;;;;;;604679;238;26591;-66
2022/08/29 11:30:22;;;;;;;3.70;3.35;;;21.40;97.40;;;;;;604608;238;26575;-66
2022/08/29 11:33:24;;;;;;;3.95;3.15;;;21.20;98.00;;;;;;604357;238;26873;-66
2022/08/29 11:35:53;;;;;;;4.18;3.03;;;21.50;97.90;;;;;;596141;233;26605;-66
2022/08/29 11:38:37;;;;;;;4.20;3.05;;;22.00;97.30;;;;;;603024;238;26848;-67
2022/08/29 11:41:16;;;;;;;3.78;3.37;;;22.70;96.60;;;;;;603418;238;26633;-67
2022/08/29 11:43:43;;;;;;;3.65;3.10;;;23.20;95.60;;;;;;604333;235;26587;-66
2022/08/29 11:46:12;;;;;;;5.22;3.35;;;23.40;94.70;;;;;;604551;238;26582;-67
2022/08/29 11:48:39;;;;;;;3.62;2.80;;;23.60;94.20;;;;;;604550;238;26579;-67
2022/08/29 11:51:19;;;;;;;4.22;3.47;;;23.90;93.90;;;;;;604492;237;26603;-66
2022/08/29 11:53:47;;;;;;;4.03;3.40;;;23.90;93.90;;;;;;604579;238;26590;-67
2022/08/29 11:56:24;;;;;;;3.60;3.20;;;24.00;93.20;;;;;;604552;237;26591;-67
2022/08/29 11:58:52;;;;;;;4.07;3.55;;;24.00;93.20;;;;;;611471;235;27033;-66
2022/08/29 12:01:48;;;;;;;3.50;2.67;;;23.90;92.90;;;;;;612804;231;26623;-67
2022/08/29 12:04:16;;;;;;;4.18;3.55;;;23.90;92.60;;;;;;601117;234;26634;-67
2022/08/29 12:07:03;;;;;;;3.42;3.12;;;23.80;92.80;;;;;;611785;234;26868;-67
2022/08/29 12:09:35;;;;;;;4.22;3.10;;;23.60;92.90;;;;;;613794;234;26620;-67
2022/08/29 12:12:11;;;;;;;2.95;2.75;;;23.50;93.30;;;;;;615046;232;26716;-66
2022/08/29 12:14:40;;;;;;;2.70;2.50;;;23.00;93.00;;;;;;614827;234;26796;-67
2022/08/29 12:17:30;;;;;;;2.60;2.33;;;23.10;93.30;;;;;;614512;234;26698;-66
2022/08/29 12:20:12;;;;;;;4.05;2.70;;;23.10;93.30;;;;;;612942;234;26668;-67
2022/08/29 12:23:05;;;;;;;5.37;3.60;;;23.10;93.40;;;;;;614033;234;26647;-66
2022/08/29 12:25:55;;;;;;;6.57;3.47;;;23.10;93.30;;;;;;612880;234;26977;-67
2022/08/29 12:28:45;;;;;;;4.47;3.40;;;23.40;92.90;;;;;;612822;234;26642;-66
2022/08/29 12:31:17;;;;;;;4.85;2.83;;;23.30;92.60;;;;;;614013;233;26611;-67
2022/08/29 12:33:51;;;;;;;3.30;3.00;;;23.60;92.10;;;;;;607347;235;26638;-67
2022/08/29 12:36:25;;;;;;;5.12;3.67;;;23.70;92.30;;;;;;607829;236;26629;-66
2022/08/29 12:39:05;;;;;;;3.05;2.75;;;24.20;91.80;;;;;;604453;235;26587;-66
2022/08/29 12:41:35;;;;;;;7.15;4.00;;;24.20;91.80;;;;;;611642;235;26650;-66
2022/08/29 12:44:03;;;;;;;3.62;3.20;;;24.00;91.50;;;;;;611528;235;26545;-66
2022/08/29 12:46:31;;;;;;;4.45;2.97;;;23.60;91.90;;;;;;612302;235;26816;-66
2022/08/29 12:49:05;;;;;;;4.78;3.30;;;24.20;91.50;;;;;;612371;235;26604;-66
2022/08/29 12:51:33;;;;;;;4.68;3.12;;;24.20;91.50;;;;;;612430;235;26656;-66
2022/08/29 12:54:00;;;;;;;3.47;3.17;;;24.40;91.00;;;;;;614386;234;26865;-66
2022/08/29 12:56:27;;;;;;;3.87;3.25;;;24.50;90.80;;;;;;614413;234;26578;-66
2022/08/29 12:58:54;;;;;;;3.62;3.33;;;24.60;90.40;;;;;;610476;234;26874;-66
2022/08/29 13:01:26;;;;;;;5.15;3.40;;;24.40;90.80;;;;;;609591;236;26575;-65